sensor_id;sensor_type;location;lat;lon;timestamp;P1;durP1;ratioP1;P2;durP2;ratioP2
34369;SDS011;20635;55.812;37.560;2022-12-20T00:00:45;1.98;;;1.70;;
34369;SDS011;20635;55.812;37.560;2022-12-20T00:03:11;2.53;;;1.83;;
34369;SDS011;20635;55.812;37.560;2022-12-20T00:05:38;2.33;;;2.13;;
34369;SDS011;20635;55.812;37.560;2022-12-20T00:08:05;2.20;;;2.00;;
34369;SDS011;20635;55.812;37.560;2022-12-20T00:10:38;2.30;;;1.70;;
34369;SDS011;20635;55.812;37.560;2022-12-20T00:13:06;2.05;;;1.50;;
34369;SDS011;20635;55.812;37.560;2022-12-20T00:15:32;2.22;;;1.83;;
34369;SDS011;20635;55.812;37.560;2022-12-20T00:17:59;1.55;;;1.33;;
34369;SDS011;20635;55.812;37.560;2022-12-20T00:20:25;1.85;;;1.63;;
34369;SDS011;20635;55.812;37.560;2022-12-20T00:22:52;1.70;;;1.60;;
34369;SDS011;20635;55.812;37.560;2022-12-20T00:25:19;1.98;;;1.63;;
34369;SDS011;20635;55.812;37.560;2022-12-20T00:27:46;2.08;;;1.88;;
34369;SDS011;20635;55.812;37.560;2022-12-20T00:30:13;2.17;;;1.98;;
34369;SDS011;20635;55.812;37.560;2022-12-20T00:32:40;1.80;;;1.52;;
34369;SDS011;20635;55.812;37.560;2022-12-20T00:35:07;1.88;;;1.67;;
34369;SDS011;20635;55.812;37.560;2022-12-20T00:37:33;2.33;;;1.80;;
34369;SDS011;20635;55.812;37.560;2022-12-20T00:39:59;2.67;;;1.60;;
34369;SDS011;20635;55.812;37.560;2022-12-20T00:42:26;3.13;;;1.50;;
34369;SDS011;20635;55.812;37.560;2022-12-20T00:44:52;1.70;;;1.40;;
34369;SDS011;20635;55.812;37.560;2022-12-20T00:47:18;2.00;;;1.50;;
34369;SDS011;20635;55.812;37.560;2022-12-20T00:49:44;2.35;;;1.73;;
34369;SDS011;20635;55.812;37.560;2022-12-20T00:52:10;1.95;;;1.77;;
34369;SDS011;20635;55.812;37.560;2022-12-20T00:54:37;1.70;;;1.60;;
34369;SDS011;20635;55.812;37.560;2022-12-20T00:57:03;1.70;;;1.50;;
34369;SDS011;20635;55.812;37.560;2022-12-20T00:59:30;2.03;;;1.83;;
34369;SDS011;20635;55.812;37.560;2022-12-20T01:01:58;2.03;;;1.55;;
34369;SDS011;20635;55.812;37.560;2022-12-20T01:04:24;2.30;;;1.70;;
34369;SDS011;20635;55.812;37.560;2022-12-20T01:06:51;1.92;;;1.60;;
34369;SDS011;20635;55.812;37.560;2022-12-20T01:09:17;1.90;;;1.75;;
34369;SDS011;20635;55.812;37.560;2022-12-20T01:11:43;1.60;;;1.33;;
34369;SDS011;20635;55.812;37.560;2022-12-20T01:14:13;1.63;;;1.38;;
34369;SDS011;20635;55.812;37.560;2022-12-20T01:16:41;2.13;;;1.40;;
34369;SDS011;20635;55.812;37.560;2022-12-20T01:19:10;2.20;;;1.90;;
34369;SDS011;20635;55.812;37.560;2022-12-20T01:21:38;2.70;;;1.92;;
34369;SDS011;20635;55.812;37.560;2022-12-20T01:24:09;1.55;;;1.45;;
34369;SDS011;20635;55.812;37.560;2022-12-20T01:26:38;1.58;;;1.48;;
34369;SDS011;20635;55.812;37.560;2022-12-20T01:29:05;1.50;;;1.40;;
34369;SDS011;20635;55.812;37.560;2022-12-20T01:31:31;2.22;;;1.67;;
34369;SDS011;20635;55.812;37.560;2022-12-20T01:33:57;1.67;;;1.55;;
34369;SDS011;20635;55.812;37.560;2022-12-20T01:36:28;1.38;;;1.27;;
34369;SDS011;20635;55.812;37.560;2022-12-20T01:38:56;1.38;;;1.23;;
34369;SDS011;20635;55.812;37.560;2022-12-20T01:41:26;2.10;;;1.55;;
34369;SDS011;20635;55.812;37.560;2022-12-20T01:43:54;1.52;;;1.40;;
34369;SDS011;20635;55.812;37.560;2022-12-20T01:46:23;1.83;;;1.23;;
34369;SDS011;20635;55.812;37.560;2022-12-20T01:49:01;1.63;;;1.08;;
34369;SDS011;20635;55.812;37.560;2022-12-20T01:51:33;1.73;;;1.23;;
34369;SDS011;20635;55.812;37.560;2022-12-20T01:54:06;1.60;;;1.30;;
34369;SDS011;20635;55.812;37.560;2022-12-20T01:56:36;4.22;;;1.40;;
34369;SDS011;20635;55.812;37.560;2022-12-20T01:59:04;1.35;;;1.25;;
34369;SDS011;20635;55.812;37.560;2022-12-20T02:01:31;1.67;;;1.23;;
34369;SDS011;20635;55.812;37.560;2022-12-20T02:03:58;1.48;;;1.38;;
34369;SDS011;20635;55.812;37.560;2022-12-20T02:06:25;1.98;;;1.30;;
34369;SDS011;20635;55.812;37.560;2022-12-20T02:08:53;1.30;;;1.20;;
34369;SDS011;20635;55.812;37.560;2022-12-20T02:11:42;1.20;;;1.10;;
34369;SDS011;20635;55.812;37.560;2022-12-20T02:17:01;1.60;;;1.17;;
34369;SDS011;20635;55.812;37.560;2022-12-20T02:30:47;2.13;;;1.10;;
34369;SDS011;20635;55.812;37.560;2022-12-20T02:33:17;1.50;;;1.27;;
34369;SDS011;20635;55.812;37.560;2022-12-20T02:35:46;1.65;;;1.40;;
34369;SDS011;20635;55.812;37.560;2022-12-20T02:41:17;1.25;;;1.15;;
34369;SDS011;20635;55.812;37.560;2022-12-20T02:43:56;1.40;;;1.30;;
34369;SDS011;20635;55.812;37.560;2022-12-20T02:46:50;1.52;;;1.40;;
34369;SDS011;20635;55.812;37.560;2022-12-20T02:49:21;1.40;;;1.30;;
34369;SDS011;20635;55.812;37.560;2022-12-20T02:51:52;1.55;;;1.23;;
34369;SDS011;20635;55.812;37.560;2022-12-20T02:54:20;1.40;;;1.30;;
34369;SDS011;20635;55.812;37.560;2022-12-20T02:56:49;1.70;;;1.58;;
34369;SDS011;20635;55.812;37.560;2022-12-20T02:59:21;1.55;;;1.30;;
34369;SDS011;20635;55.812;37.560;2022-12-20T03:02:02;1.65;;;1.25;;
34369;SDS011;20635;55.812;37.560;2022-12-20T03:04:31;1.77;;;1.60;;
34369;SDS011;20635;55.812;37.560;2022-12-20T03:07:04;1.50;;;1.23;;
34369;SDS011;20635;55.812;37.560;2022-12-20T03:09:33;1.35;;;1.23;;
34369;SDS011;20635;55.812;37.560;2022-12-20T03:12:01;1.55;;;1.35;;
34369;SDS011;20635;55.812;37.560;2022-12-20T03:14:29;1.90;;;1.48;;
34369;SDS011;20635;55.812;37.560;2022-12-20T03:16:58;1.92;;;1.38;;
34369;SDS011;20635;55.812;37.560;2022-12-20T03:19:25;1.65;;;1.50;;
34369;SDS011;20635;55.812;37.560;2022-12-20T03:21:51;1.67;;;1.30;;
34369;SDS011;20635;55.812;37.560;2022-12-20T03:24:17;1.45;;;1.33;;
34369;SDS011;20635;55.812;37.560;2022-12-20T03:26:43;1.50;;;1.33;;
34369;SDS011;20635;55.812;37.560;2022-12-20T03:29:10;1.73;;;1.20;;
34369;SDS011;20635;55.812;37.560;2022-12-20T03:31:36;1.63;;;1.17;;
34369;SDS011;20635;55.812;37.560;2022-12-20T03:34:03;1.70;;;1.50;;
34369;SDS011;20635;55.812;37.560;2022-12-20T03:36:29;1.13;;;1.02;;
34369;SDS011;20635;55.812;37.560;2022-12-20T03:38:59;1.52;;;1.30;;
34369;SDS011;20635;55.812;37.560;2022-12-20T03:41:27;1.40;;;1.10;;
34369;SDS011;20635;55.812;37.560;2022-12-20T03:43:53;1.17;;;1.08;;
34369;SDS011;20635;55.812;37.560;2022-12-20T03:46:21;1.50;;;1.13;;
34369;SDS011;20635;55.812;37.560;2022-12-20T03:48:46;1.17;;;1.02;;
34369;SDS011;20635;55.812;37.560;2022-12-20T03:51:12;1.15;;;1.05;;
34369;SDS011;20635;55.812;37.560;2022-12-20T03:53:38;1.67;;;1.42;;
34369;SDS011;20635;55.812;37.560;2022-12-20T03:56:04;3.30;;;1.38;;
34369;SDS011;20635;55.812;37.560;2022-12-20T03:58:31;1.30;;;1.00;;
34369;SDS011;20635;55.812;37.560;2022-12-20T04:00:57;1.50;;;1.20;;
34369;SDS011;20635;55.812;37.560;2022-12-20T04:03:38;2.22;;;1.25;;
34369;SDS011;20635;55.812;37.560;2022-12-20T04:06:04;1.92;;;1.60;;
34369;SDS011;20635;55.812;37.560;2022-12-20T04:08:30;1.60;;;1.42;;
34369;SDS011;20635;55.812;37.560;2022-12-20T04:10:57;2.42;;;1.30;;
34369;SDS011;20635;55.812;37.560;2022-12-20T04:13:50;1.50;;;1.17;;
34369;SDS011;20635;55.812;37.560;2022-12-20T04:16:18;2.78;;;1.50;;
34369;SDS011;20635;55.812;37.560;2022-12-20T04:18:46;2.85;;;1.42;;
34369;SDS011;20635;55.812;37.560;2022-12-20T04:21:13;1.45;;;1.27;;
34369;SDS011;20635;55.812;37.560;2022-12-20T04:23:44;2.72;;;1.23;;
34369;SDS011;20635;55.812;37.560;2022-12-20T04:26:11;1.60;;;1.40;;
34369;SDS011;20635;55.812;37.560;2022-12-20T04:28:38;1.55;;;1.40;;
34369;SDS011;20635;55.812;37.560;2022-12-20T04:31:07;1.77;;;1.20;;
34369;SDS011;20635;55.812;37.560;2022-12-20T04:33:36;2.42;;;1.77;;
34369;SDS011;20635;55.812;37.560;2022-12-20T04:36:06;2.05;;;1.25;;
34369;SDS011;20635;55.812;37.560;2022-12-20T04:38:33;2.70;;;1.10;;
34369;SDS011;20635;55.812;37.560;2022-12-20T04:41:00;1.80;;;1.45;;
34369;SDS011;20635;55.812;37.560;2022-12-20T04:43:34;3.20;;;1.40;;
34369;SDS011;20635;55.812;37.560;2022-12-20T04:46:02;3.30;;;1.58;;
34369;SDS011;20635;55.812;37.560;2022-12-20T04:48:29;2.30;;;1.60;;
34369;SDS011;20635;55.812;37.560;2022-12-20T04:50:55;2.75;;;1.83;;
34369;SDS011;20635;55.812;37.560;2022-12-20T04:53:22;3.13;;;1.58;;
34369;SDS011;20635;55.812;37.560;2022-12-20T04:56:08;3.22;;;1.60;;
34369;SDS011;20635;55.812;37.560;2022-12-20T04:58:34;4.10;;;1.50;;
34369;SDS011;20635;55.812;37.560;2022-12-20T05:01:03;3.08;;;1.65;;
34369;SDS011;20635;55.812;37.560;2022-12-20T05:03:37;2.25;;;1.65;;
34369;SDS011;20635;55.812;37.560;2022-12-20T05:06:03;2.55;;;1.70;;
34369;SDS011;20635;55.812;37.560;2022-12-20T05:08:31;2.78;;;1.77;;
34369;SDS011;20635;55.812;37.560;2022-12-20T05:10:58;1.65;;;1.52;;
34369;SDS011;20635;55.812;37.560;2022-12-20T05:13:25;2.95;;;1.60;;
34369;SDS011;20635;55.812;37.560;2022-12-20T05:15:51;1.40;;;1.25;;
34369;SDS011;20635;55.812;37.560;2022-12-20T05:18:22;3.55;;;1.92;;
34369;SDS011;20635;55.812;37.560;2022-12-20T05:20:58;4.18;;;1.80;;
34369;SDS011;20635;55.812;37.560;2022-12-20T05:23:46;1.50;;;1.35;;
34369;SDS011;20635;55.812;37.560;2022-12-20T05:26:41;2.20;;;1.52;;
34369;SDS011;20635;55.812;37.560;2022-12-20T05:29:07;2.10;;;1.70;;
34369;SDS011;20635;55.812;37.560;2022-12-20T05:31:34;2.63;;;2.13;;
34369;SDS011;20635;55.812;37.560;2022-12-20T05:34:00;3.75;;;1.70;;
34369;SDS011;20635;55.812;37.560;2022-12-20T05:36:29;1.60;;;1.50;;
34369;SDS011;20635;55.812;37.560;2022-12-20T05:38:57;2.53;;;1.50;;
34369;SDS011;20635;55.812;37.560;2022-12-20T05:41:25;1.67;;;1.50;;
34369;SDS011;20635;55.812;37.560;2022-12-20T05:43:55;2.97;;;2.00;;
34369;SDS011;20635;55.812;37.560;2022-12-20T05:46:21;1.88;;;1.55;;
34369;SDS011;20635;55.812;37.560;2022-12-20T05:48:55;1.80;;;1.52;;
34369;SDS011;20635;55.812;37.560;2022-12-20T05:51:22;2.63;;;1.40;;
34369;SDS011;20635;55.812;37.560;2022-12-20T05:54:01;1.75;;;1.55;;
34369;SDS011;20635;55.812;37.560;2022-12-20T05:56:54;1.98;;;1.83;;
34369;SDS011;20635;55.812;37.560;2022-12-20T05:59:26;1.98;;;1.50;;
34369;SDS011;20635;55.812;37.560;2022-12-20T06:01:52;2.15;;;1.48;;
34369;SDS011;20635;55.812;37.560;2022-12-20T06:04:20;1.85;;;1.60;;
34369;SDS011;20635;55.812;37.560;2022-12-20T06:06:47;1.75;;;1.48;;
34369;SDS011;20635;55.812;37.560;2022-12-20T06:09:16;2.13;;;1.90;;
34369;SDS011;20635;55.812;37.560;2022-12-20T06:11:47;2.38;;;1.65;;
34369;SDS011;20635;55.812;37.560;2022-12-20T06:14:14;2.53;;;1.35;;
34369;SDS011;20635;55.812;37.560;2022-12-20T06:16:44;2.40;;;1.45;;
34369;SDS011;20635;55.812;37.560;2022-12-20T06:19:11;2.00;;;1.70;;
34369;SDS011;20635;55.812;37.560;2022-12-20T06:21:38;2.00;;;1.40;;
34369;SDS011;20635;55.812;37.560;2022-12-20T06:24:04;1.90;;;1.63;;
34369;SDS011;20635;55.812;37.560;2022-12-20T06:26:31;2.90;;;1.58;;
34369;SDS011;20635;55.812;37.560;2022-12-20T06:29:03;1.40;;;1.20;;
34369;SDS011;20635;55.812;37.560;2022-12-20T06:31:46;1.98;;;1.60;;
34369;SDS011;20635;55.812;37.560;2022-12-20T06:34:13;1.70;;;1.60;;
34369;SDS011;20635;55.812;37.560;2022-12-20T06:36:40;1.77;;;1.60;;
34369;SDS011;20635;55.812;37.560;2022-12-20T06:41:46;2.05;;;1.70;;
34369;SDS011;20635;55.812;37.560;2022-12-20T06:44:12;1.98;;;1.30;;
34369;SDS011;20635;55.812;37.560;2022-12-20T06:46:38;2.20;;;1.75;;
34369;SDS011;20635;55.812;37.560;2022-12-20T06:49:04;1.70;;;1.40;;
34369;SDS011;20635;55.812;37.560;2022-12-20T06:51:31;1.75;;;1.48;;
34369;SDS011;20635;55.812;37.560;2022-12-20T06:53:58;3.22;;;1.70;;
34369;SDS011;20635;55.812;37.560;2022-12-20T06:56:25;2.05;;;1.80;;
34369;SDS011;20635;55.812;37.560;2022-12-20T06:58:51;2.15;;;1.65;;
34369;SDS011;20635;55.812;37.560;2022-12-20T07:01:18;1.52;;;1.42;;
34369;SDS011;20635;55.812;37.560;2022-12-20T07:03:43;2.47;;;1.98;;
34369;SDS011;20635;55.812;37.560;2022-12-20T07:06:09;1.67;;;1.55;;
34369;SDS011;20635;55.812;37.560;2022-12-20T07:08:36;1.92;;;1.17;;
34369;SDS011;20635;55.812;37.560;2022-12-20T07:11:03;2.00;;;1.40;;
34369;SDS011;20635;55.812;37.560;2022-12-20T07:13:30;1.98;;;1.65;;
34369;SDS011;20635;55.812;37.560;2022-12-20T07:16:00;1.83;;;1.58;;
34369;SDS011;20635;55.812;37.560;2022-12-20T07:18:27;1.85;;;1.40;;
34369;SDS011;20635;55.812;37.560;2022-12-20T07:20:57;1.55;;;1.45;;
34369;SDS011;20635;55.812;37.560;2022-12-20T07:23:25;1.43;;;1.33;;
34369;SDS011;20635;55.812;37.560;2022-12-20T07:25:52;1.85;;;1.67;;
34369;SDS011;20635;55.812;37.560;2022-12-20T07:28:19;2.40;;;1.70;;
34369;SDS011;20635;55.812;37.560;2022-12-20T07:30:45;1.85;;;1.30;;
34369;SDS011;20635;55.812;37.560;2022-12-20T07:33:11;1.52;;;1.30;;
34369;SDS011;20635;55.812;37.560;2022-12-20T07:35:37;1.65;;;1.52;;
34369;SDS011;20635;55.812;37.560;2022-12-20T07:38:03;1.48;;;1.35;;
34369;SDS011;20635;55.812;37.560;2022-12-20T07:40:29;1.52;;;1.35;;
34369;SDS011;20635;55.812;37.560;2022-12-20T07:42:56;1.63;;;1.40;;
34369;SDS011;20635;55.812;37.560;2022-12-20T07:45:23;1.65;;;1.55;;
34369;SDS011;20635;55.812;37.560;2022-12-20T07:47:49;1.45;;;1.23;;
34369;SDS011;20635;55.812;37.560;2022-12-20T07:50:15;1.63;;;1.40;;
34369;SDS011;20635;55.812;37.560;2022-12-20T07:52:41;1.40;;;1.27;;
34369;SDS011;20635;55.812;37.560;2022-12-20T07:55:10;1.73;;;1.30;;
34369;SDS011;20635;55.812;37.560;2022-12-20T07:57:40;1.20;;;1.08;;
34369;SDS011;20635;55.812;37.560;2022-12-20T08:00:09;1.50;;;1.20;;
34369;SDS011;20635;55.812;37.560;2022-12-20T08:02:40;1.35;;;1.25;;
34369;SDS011;20635;55.812;37.560;2022-12-20T08:05:11;1.30;;;1.20;;
34369;SDS011;20635;55.812;37.560;2022-12-20T08:07:38;1.30;;;1.17;;
34369;SDS011;20635;55.812;37.560;2022-12-20T08:10:06;1.63;;;1.38;;
34369;SDS011;20635;55.812;37.560;2022-12-20T08:12:34;1.30;;;1.20;;
34369;SDS011;20635;55.812;37.560;2022-12-20T08:15:00;1.20;;;1.10;;
34369;SDS011;20635;55.812;37.560;2022-12-20T08:17:27;1.45;;;1.25;;
34369;SDS011;20635;55.812;37.560;2022-12-20T08:19:52;1.80;;;1.15;;
34369;SDS011;20635;55.812;37.560;2022-12-20T08:22:18;0.80;;;0.80;;
34369;SDS011;20635;55.812;37.560;2022-12-20T08:24:45;1.30;;;1.13;;
34369;SDS011;20635;55.812;37.560;2022-12-20T08:27:11;1.30;;;1.20;;
34369;SDS011;20635;55.812;37.560;2022-12-20T08:29:37;1.30;;;1.10;;
34369;SDS011;20635;55.812;37.560;2022-12-20T08:32:03;1.45;;;1.13;;
34369;SDS011;20635;55.812;37.560;2022-12-20T08:34:29;1.25;;;1.08;;
34369;SDS011;20635;55.812;37.560;2022-12-20T08:36:55;1.77;;;1.33;;
34369;SDS011;20635;55.812;37.560;2022-12-20T08:39:21;1.38;;;1.20;;
34369;SDS011;20635;55.812;37.560;2022-12-20T08:41:47;1.92;;;1.35;;
34369;SDS011;20635;55.812;37.560;2022-12-20T08:44:13;1.75;;;1.23;;
34369;SDS011;20635;55.812;37.560;2022-12-20T08:46:39;1.40;;;1.10;;
34369;SDS011;20635;55.812;37.560;2022-12-20T08:49:05;1.60;;;1.10;;
34369;SDS011;20635;55.812;37.560;2022-12-20T08:51:31;1.10;;;1.00;;
34369;SDS011;20635;55.812;37.560;2022-12-20T08:53:57;1.58;;;1.33;;
34369;SDS011;20635;55.812;37.560;2022-12-20T08:56:23;1.13;;;1.02;;
34369;SDS011;20635;55.812;37.560;2022-12-20T08:58:49;1.00;;;0.88;;
34369;SDS011;20635;55.812;37.560;2022-12-20T09:01:16;1.63;;;1.25;;
34369;SDS011;20635;55.812;37.560;2022-12-20T09:03:43;1.00;;;0.90;;
34369;SDS011;20635;55.812;37.560;2022-12-20T09:06:15;1.33;;;0.98;;
34369;SDS011;20635;55.812;37.560;2022-12-20T09:08:44;1.23;;;1.13;;
34369;SDS011;20635;55.812;37.560;2022-12-20T09:11:12;1.20;;;1.10;;
34369;SDS011;20635;55.812;37.560;2022-12-20T09:13:43;1.10;;;1.00;;
34369;SDS011;20635;55.812;37.560;2022-12-20T09:16:11;1.35;;;1.15;;
34369;SDS011;20635;55.812;37.560;2022-12-20T09:18:38;1.35;;;1.25;;
34369;SDS011;20635;55.812;37.560;2022-12-20T09:21:05;1.30;;;1.00;;
34369;SDS011;20635;55.812;37.560;2022-12-20T09:23:32;1.50;;;1.15;;
34369;SDS011;20635;55.812;37.560;2022-12-20T09:26:06;1.02;;;0.90;;
34369;SDS011;20635;55.812;37.560;2022-12-20T09:28:36;1.42;;;1.10;;
34369;SDS011;20635;55.812;37.560;2022-12-20T09:31:03;1.10;;;1.00;;
34369;SDS011;20635;55.812;37.560;2022-12-20T09:33:31;0.98;;;0.93;;
34369;SDS011;20635;55.812;37.560;2022-12-20T09:35:58;1.77;;;1.10;;
34369;SDS011;20635;55.812;37.560;2022-12-20T09:38:26;1.00;;;0.90;;
34369;SDS011;20635;55.812;37.560;2022-12-20T09:40:53;1.00;;;1.00;;
34369;SDS011;20635;55.812;37.560;2022-12-20T09:43:21;2.00;;;1.65;;
34369;SDS011;20635;55.812;37.560;2022-12-20T09:45:52;0.90;;;0.90;;
34369;SDS011;20635;55.812;37.560;2022-12-20T09:48:29;1.17;;;1.05;;
34369;SDS011;20635;55.812;37.560;2022-12-20T09:56:25;0.70;;;0.70;;
34369;SDS011;20635;55.812;37.560;2022-12-20T10:01:37;1.33;;;1.08;;
34369;SDS011;20635;55.812;37.560;2022-12-20T10:04:05;1.15;;;1.00;;
34369;SDS011;20635;55.812;37.560;2022-12-20T10:21:13;1.13;;;1.00;;
34369;SDS011;20635;55.812;37.560;2022-12-20T10:23:15;1.10;;;1.00;;
34369;SDS011;20635;55.812;37.560;2022-12-20T10:25:50;1.13;;;1.03;;
34369;SDS011;20635;55.812;37.560;2022-12-20T10:28:18;1.13;;;1.00;;
34369;SDS011;20635;55.812;37.560;2022-12-20T10:30:49;1.08;;;1.00;;
34369;SDS011;20635;55.812;37.560;2022-12-20T10:33:18;1.10;;;1.00;;
34369;SDS011;20635;55.812;37.560;2022-12-20T10:35:47;0.82;;;0.82;;
34369;SDS011;20635;55.812;37.560;2022-12-20T10:38:15;1.30;;;1.20;;
34369;SDS011;20635;55.812;37.560;2022-12-20T10:43:25;0.80;;;0.80;;
34369;SDS011;20635;55.812;37.560;2022-12-20T10:45:59;1.40;;;1.08;;
34369;SDS011;20635;55.812;37.560;2022-12-20T10:48:35;1.30;;;1.20;;
34369;SDS011;20635;55.812;37.560;2022-12-20T10:53:35;1.13;;;1.02;;
34369;SDS011;20635;55.812;37.560;2022-12-20T10:56:14;0.80;;;0.80;;
34369;SDS011;20635;55.812;37.560;2022-12-20T10:58:57;1.60;;;1.10;;
34369;SDS011;20635;55.812;37.560;2022-12-20T11:01:28;1.10;;;1.00;;
34369;SDS011;20635;55.812;37.560;2022-12-20T11:03:59;1.05;;;0.88;;
34369;SDS011;20635;55.812;37.560;2022-12-20T11:09:16;1.00;;;0.90;;
34369;SDS011;20635;55.812;37.560;2022-12-20T11:12:03;1.30;;;1.20;;
34369;SDS011;20635;55.812;37.560;2022-12-20T11:14:36;0.82;;;0.80;;
34369;SDS011;20635;55.812;37.560;2022-12-20T11:17:03;1.40;;;1.30;;
34369;SDS011;20635;55.812;37.560;2022-12-20T11:22:49;1.10;;;1.00;;
34369;SDS011;20635;55.812;37.560;2022-12-20T11:30:56;1.58;;;1.13;;
34369;SDS011;20635;55.812;37.560;2022-12-20T11:39:08;1.47;;;1.37;;
34369;SDS011;20635;55.812;37.560;2022-12-20T11:47:52;1.17;;;1.08;;
34369;SDS011;20635;55.812;37.560;2022-12-20T11:53:31;1.33;;;1.05;;
34369;SDS011;20635;55.812;37.560;2022-12-20T11:56:01;1.10;;;1.00;;
34369;SDS011;20635;55.812;37.560;2022-12-20T11:58:50;1.20;;;1.10;;
34369;SDS011;20635;55.812;37.560;2022-12-20T12:01:20;1.15;;;1.05;;
34369;SDS011;20635;55.812;37.560;2022-12-20T12:06:36;1.60;;;1.23;;
34369;SDS011;20635;55.812;37.560;2022-12-20T12:11:46;1.38;;;1.20;;
34369;SDS011;20635;55.812;37.560;2022-12-20T12:14:42;1.75;;;1.40;;
34369;SDS011;20635;55.812;37.560;2022-12-20T12:17:12;1.63;;;1.33;;
34369;SDS011;20635;55.812;37.560;2022-12-20T12:19:51;1.40;;;1.30;;
34369;SDS011;20635;55.812;37.560;2022-12-20T12:22:24;1.38;;;1.23;;
34369;SDS011;20635;55.812;37.560;2022-12-20T12:24:58;1.55;;;1.20;;
34369;SDS011;20635;55.812;37.560;2022-12-20T12:27:28;1.75;;;1.38;;
34369;SDS011;20635;55.812;37.560;2022-12-20T12:29:54;1.38;;;1.27;;
34369;SDS011;20635;55.812;37.560;2022-12-20T12:35:54;1.52;;;1.42;;
34369;SDS011;20635;55.812;37.560;2022-12-20T12:46:58;2.15;;;1.30;;
34369;SDS011;20635;55.812;37.560;2022-12-20T12:49:29;1.50;;;1.40;;
34369;SDS011;20635;55.812;37.560;2022-12-20T12:51:59;1.50;;;1.40;;
34369;SDS011;20635;55.812;37.560;2022-12-20T12:54:37;1.25;;;1.15;;
34369;SDS011;20635;55.812;37.560;2022-12-20T12:57:06;1.85;;;1.50;;
34369;SDS011;20635;55.812;37.560;2022-12-20T13:04:54;1.25;;;1.02;;
34369;SDS011;20635;55.812;37.560;2022-12-20T13:07:27;1.52;;;1.42;;
34369;SDS011;20635;55.812;37.560;2022-12-20T13:10:01;1.35;;;1.25;;
34369;SDS011;20635;55.812;37.560;2022-12-20T13:20:26;1.20;;;1.08;;
34369;SDS011;20635;55.812;37.560;2022-12-20T13:25:50;1.60;;;1.40;;
34369;SDS011;20635;55.812;37.560;2022-12-20T13:33:42;2.17;;;1.20;;
34369;SDS011;20635;55.812;37.560;2022-12-20T13:38:47;1.33;;;1.23;;
34369;SDS011;20635;55.812;37.560;2022-12-20T13:44:08;1.33;;;1.20;;
34369;SDS011;20635;55.812;37.560;2022-12-20T13:49:16;1.20;;;1.10;;
34369;SDS011;20635;55.812;37.560;2022-12-20T13:54:45;1.45;;;1.35;;
34369;SDS011;20635;55.812;37.560;2022-12-20T13:57:30;1.42;;;1.27;;
34369;SDS011;20635;55.812;37.560;2022-12-20T14:00:21;1.55;;;1.40;;
34369;SDS011;20635;55.812;37.560;2022-12-20T14:02:49;1.42;;;1.33;;
34369;SDS011;20635;55.812;37.560;2022-12-20T14:05:20;1.20;;;1.10;;
34369;SDS011;20635;55.812;37.560;2022-12-20T14:07:54;1.10;;;1.00;;
34369;SDS011;20635;55.812;37.560;2022-12-20T14:10:25;1.45;;;1.08;;
34369;SDS011;20635;55.812;37.560;2022-12-20T14:12:53;1.92;;;1.35;;
34369;SDS011;20635;55.812;37.560;2022-12-20T14:15:41;1.50;;;1.40;;
34369;SDS011;20635;55.812;37.560;2022-12-20T14:18:16;1.33;;;1.23;;
34369;SDS011;20635;55.812;37.560;2022-12-20T14:20:59;2.15;;;1.25;;
34369;SDS011;20635;55.812;37.560;2022-12-20T14:26:05;1.50;;;1.40;;
34369;SDS011;20635;55.812;37.560;2022-12-20T14:31:05;1.33;;;1.23;;
34369;SDS011;20635;55.812;37.560;2022-12-20T14:33:46;1.25;;;1.15;;
34369;SDS011;20635;55.812;37.560;2022-12-20T14:36:21;1.50;;;1.30;;
34369;SDS011;20635;55.812;37.560;2022-12-20T14:38:48;0.98;;;0.98;;
34369;SDS011;20635;55.812;37.560;2022-12-20T14:46:31;1.15;;;1.05;;
34369;SDS011;20635;55.812;37.560;2022-12-20T14:51:47;1.50;;;1.40;;
34369;SDS011;20635;55.812;37.560;2022-12-20T14:54:38;1.65;;;1.30;;
34369;SDS011;20635;55.812;37.560;2022-12-20T14:57:09;1.23;;;1.13;;
34369;SDS011;20635;55.812;37.560;2022-12-20T14:59:44;1.45;;;1.20;;
34369;SDS011;20635;55.812;37.560;2022-12-20T15:02:26;1.33;;;1.10;;
34369;SDS011;20635;55.812;37.560;2022-12-20T15:05:06;1.42;;;1.20;;
34369;SDS011;20635;55.812;37.560;2022-12-20T15:07:50;1.20;;;1.10;;
34369;SDS011;20635;55.812;37.560;2022-12-20T15:10:16;1.30;;;1.20;;
34369;SDS011;20635;55.812;37.560;2022-12-20T15:12:42;1.15;;;1.00;;
34369;SDS011;20635;55.812;37.560;2022-12-20T15:15:13;1.38;;;1.27;;
34369;SDS011;20635;55.812;37.560;2022-12-20T15:17:40;1.58;;;1.45;;
34369;SDS011;20635;55.812;37.560;2022-12-20T15:20:12;1.42;;;1.33;;
34369;SDS011;20635;55.812;37.560;2022-12-20T15:22:41;2.22;;;1.30;;
34369;SDS011;20635;55.812;37.560;2022-12-20T15:25:14;1.25;;;1.15;;
34369;SDS011;20635;55.812;37.560;2022-12-20T15:27:41;1.38;;;1.27;;
34369;SDS011;20635;55.812;37.560;2022-12-20T15:30:10;1.65;;;1.35;;
34369;SDS011;20635;55.812;37.560;2022-12-20T15:32:40;1.23;;;1.13;;
34369;SDS011;20635;55.812;37.560;2022-12-20T15:35:13;1.23;;;1.02;;
34369;SDS011;20635;55.812;37.560;2022-12-20T15:37:40;1.35;;;1.20;;
34369;SDS011;20635;55.812;37.560;2022-12-20T15:40:06;1.40;;;1.30;;
34369;SDS011;20635;55.812;37.560;2022-12-20T15:42:37;1.38;;;1.27;;
34369;SDS011;20635;55.812;37.560;2022-12-20T15:45:10;1.38;;;1.08;;
34369;SDS011;20635;55.812;37.560;2022-12-20T15:50:03;1.08;;;0.98;;
34369;SDS011;20635;55.812;37.560;2022-12-20T15:52:30;1.30;;;1.17;;
34369;SDS011;20635;55.812;37.560;2022-12-20T15:54:56;1.13;;;1.02;;
34369;SDS011;20635;55.812;37.560;2022-12-20T15:57:22;1.45;;;1.30;;
34369;SDS011;20635;55.812;37.560;2022-12-20T15:59:48;1.50;;;1.40;;
34369;SDS011;20635;55.812;37.560;2022-12-20T16:02:19;1.55;;;1.20;;
34369;SDS011;20635;55.812;37.560;2022-12-20T16:04:47;1.52;;;1.30;;
34369;SDS011;20635;55.812;37.560;2022-12-20T16:07:13;2.42;;;1.23;;
34369;SDS011;20635;55.812;37.560;2022-12-20T16:09:39;2.90;;;1.30;;
34369;SDS011;20635;55.812;37.560;2022-12-20T16:12:48;1.42;;;1.33;;
34369;SDS011;20635;55.812;37.560;2022-12-20T16:14:57;2.00;;;1.40;;
34369;SDS011;20635;55.812;37.560;2022-12-20T16:17:23;1.60;;;1.40;;
34369;SDS011;20635;55.812;37.560;2022-12-20T16:19:49;1.50;;;1.40;;
34369;SDS011;20635;55.812;37.560;2022-12-20T16:22:16;1.23;;;1.10;;
34369;SDS011;20635;55.812;37.560;2022-12-20T16:24:44;1.48;;;1.20;;
34369;SDS011;20635;55.812;37.560;2022-12-20T16:27:10;2.20;;;1.20;;
34369;SDS011;20635;55.812;37.560;2022-12-20T16:29:37;1.40;;;1.00;;
34369;SDS011;20635;55.812;37.560;2022-12-20T16:32:04;1.27;;;1.08;;
34369;SDS011;20635;55.812;37.560;2022-12-20T16:34:37;2.03;;;1.52;;
34369;SDS011;20635;55.812;37.560;2022-12-20T16:37:03;1.45;;;1.30;;
34369;SDS011;20635;55.812;37.560;2022-12-20T16:39:30;1.92;;;1.35;;
34369;SDS011;20635;55.812;37.560;2022-12-20T16:41:56;1.27;;;1.17;;
34369;SDS011;20635;55.812;37.560;2022-12-20T16:44:22;1.45;;;1.10;;
34369;SDS011;20635;55.812;37.560;2022-12-20T16:46:48;1.52;;;1.42;;
34369;SDS011;20635;55.812;37.560;2022-12-20T16:49:14;1.52;;;1.42;;
34369;SDS011;20635;55.812;37.560;2022-12-20T16:51:42;1.50;;;1.40;;
34369;SDS011;20635;55.812;37.560;2022-12-20T16:54:14;1.20;;;1.10;;
34369;SDS011;20635;55.812;37.560;2022-12-20T16:59:08;1.35;;;1.25;;
34369;SDS011;20635;55.812;37.560;2022-12-20T17:01:36;2.55;;;1.30;;
34369;SDS011;20635;55.812;37.560;2022-12-20T17:04:03;1.70;;;1.27;;
34369;SDS011;20635;55.812;37.560;2022-12-20T17:06:30;1.52;;;1.20;;
34369;SDS011;20635;55.812;37.560;2022-12-20T17:08:57;2.60;;;1.88;;